sensor_id;sensor_type;location;lat;lon;timestamp;pressure;altitude;pressure_sealevel;temperature;humidity
57050;BME280;42935;50.966;16.992;2022-09-13T00:02:45;101375.59;;;9.16;100.00
57050;BME280;42935;50.966;16.992;2022-09-13T00:06:10;101372.40;;;9.12;100.00
57050;BME280;42935;50.966;16.992;2022-09-13T00:09:21;101369.91;;;9.13;100.00
57050;BME280;42935;50.966;16.992;2022-09-13T00:12:32;101356.79;;;9.12;100.00
57050;BME280;42935;50.966;16.992;2022-09-13T00:15:45;101363.83;;;9.17;100.00
57050;BME280;42935;50.966;16.992;2022-09-13T00:18:58;101358.61;;;9.09;100.00
57050;BME280;42935;50.966;16.992;2022-09-13T00:22:12;101351.52;;;9.01;100.00
57050;BME280;42935;50.966;16.992;2022-09-13T00:25:23;101359.28;;;9.06;100.00
57050;BME280;42935;50.966;16.992;2022-09-13T00:28:34;101356.32;;;9.04;100.00
57050;BME280;42935;50.966;16.992;2022-09-13T00:31:45;101346.88;;;8.90;100.00
57050;BME280;42935;50.966;16.992;2022-09-13T00:34:56;101354.79;;;8.93;100.00
57050;BME280;42935;50.966;16.992;2022-09-13T00:38:10;101340.48;;;8.88;100.00
57050;BME280;42935;50.966;16.992;2022-09-13T00:41:21;101343.86;;;8.98;100.00
57050;BME280;42935;50.966;16.992;2022-09-13T00:48:00;101339.52;;;9.01;100.00
57050;BME280;42935;50.966;16.992;2022-09-13T00:51:16;101338.52;;;8.97;100.00
57050;BME280;42935;50.966;16.992;2022-09-13T00:54:28;101330.30;;;8.76;100.00
57050;BME280;42935;50.966;16.992;2022-09-13T00:57:43;101326.62;;;8.80;100.00
57050;BME280;42935;50.966;16.992;2022-09-13T01:00:56;101337.53;;;8.82;100.00
57050;BME280;42935;50.966;16.992;2022-09-13T01:04:08;101328.59;;;8.75;100.00
57050;BME280;42935;50.966;16.992;2022-09-13T01:07:19;101335.44;;;8.82;100.00
57050;BME280;42935;50.966;16.992;2022-09-13T01:10:31;101331.53;;;8.83;100.00
57050;BME280;42935;50.966;16.992;2022-09-13T01:13:51;101325.73;;;8.72;100.00
57050;BME280;42935;50.966;16.992;2022-09-13T01:17:05;101333.49;;;8.72;100.00
57050;BME280;42935;50.966;16.992;2022-09-13T01:20:17;101330.60;;;8.69;100.00
57050;BME280;42935;50.966;16.992;2022-09-13T01:30:21;101320.64;;;8.61;100.00
57050;BME280;42935;50.966;16.992;2022-09-13T01:47:26;101308.35;;;8.51;100.00
57050;BME280;42935;50.966;16.992;2022-09-13T01:50:44;101295.62;;;8.43;100.00
57050;BME280;42935;50.966;16.992;2022-09-13T02:04:21;101286.82;;;8.17;100.00
57050;BME280;42935;50.966;16.992;2022-09-13T02:07:38;101272.19;;;8.09;100.00
57050;BME280;42935;50.966;16.992;2022-09-13T02:10:57;101264.41;;;7.98;100.00
57050;BME280;42935;50.966;16.992;2022-09-13T02:14:20;101269.48;;;8.06;100.00
57050;BME280;42935;50.966;16.992;2022-09-13T02:18:12;101261.73;;;8.03;100.00
57050;BME280;42935;50.966;16.992;2022-09-13T02:21:28;101255.18;;;7.94;100.00
57050;BME280;42935;50.966;16.992;2022-09-13T02:24:45;101254.94;;;7.95;100.00
57050;BME280;42935;50.966;16.992;2022-09-13T02:28:02;101246.39;;;7.95;100.00
57050;BME280;42935;50.966;16.992;2022-09-13T02:31:23;101257.66;;;8.05;100.00
57050;BME280;42935;50.966;16.992;2022-09-13T02:38:07;101250.49;;;8.02;100.00
57050;BME280;42935;50.966;16.992;2022-09-13T02:44:55;101235.52;;;7.97;100.00
57050;BME280;42935;50.966;16.992;2022-09-13T02:48:19;101225.09;;;7.89;100.00
57050;BME280;42935;50.966;16.992;2022-09-13T02:51:44;101240.44;;;7.98;100.00
57050;BME280;42935;50.966;16.992;2022-09-13T02:55:05;101240.16;;;7.97;100.00
57050;BME280;42935;50.966;16.992;2022-09-13T03:01:52;101228.03;;;7.94;100.00
57050;BME280;42935;50.966;16.992;2022-09-13T03:05:05;101217.48;;;7.94;100.00
57050;BME280;42935;50.966;16.992;2022-09-13T03:08:17;101220.50;;;7.90;100.00
57050;BME280;42935;50.966;16.992;2022-09-13T03:11:40;101204.71;;;7.81;100.00
57050;BME280;42935;50.966;16.992;2022-09-13T03:15:06;101206.30;;;7.88;100.00
57050;BME280;42935;50.966;16.992;2022-09-13T03:21:57;101202.05;;;7.88;100.00
57050;BME280;42935;50.966;16.992;2022-09-13T03:35:26;101188.46;;;7.94;100.00
57050;BME280;42935;50.966;16.992;2022-09-13T03:42:15;101168.55;;;7.87;100.00
57050;BME280;42935;50.966;16.992;2022-09-13T03:45:41;101177.28;;;7.87;100.00
57050;BME280;42935;50.966;16.992;2022-09-13T03:48:56;101170.07;;;7.90;100.00
57050;BME280;42935;50.966;16.992;2022-09-13T03:52:10;101169.57;;;7.97;100.00
57050;BME280;42935;50.966;16.992;2022-09-13T03:55:21;101166.70;;;7.98;100.00
57050;BME280;42935;50.966;16.992;2022-09-13T03:58:35;101163.22;;;7.97;100.00
57050;BME280;42935;50.966;16.992;2022-09-13T04:01:42;101158.23;;;7.97;100.00
57050;BME280;42935;50.966;16.992;2022-09-13T04:04:57;101169.27;;;7.90;100.00
57050;BME280;42935;50.966;16.992;2022-09-13T04:08:11;101159.91;;;7.77;100.00
57050;BME280;42935;50.966;16.992;2022-09-13T04:11:22;101157.41;;;7.84;100.00
57050;BME280;42935;50.966;16.992;2022-09-13T04:14:37;101168.17;;;7.86;100.00
57050;BME280;42935;50.966;16.992;2022-09-13T04:17:48;101167.90;;;7.76;100.00
57050;BME280;42935;50.966;16.992;2022-09-13T04:21:00;101166.09;;;7.74;100.00
57050;BME280;42935;50.966;16.992;2022-09-13T04:24:15;101154.93;;;7.68;100.00
57050;BME280;42935;50.966;16.992;2022-09-13T04:27:26;101168.25;;;7.72;100.00
57050;BME280;42935;50.966;16.992;2022-09-13T04:30:37;101167.06;;;7.75;100.00
57050;BME280;42935;50.966;16.992;2022-09-13T04:33:49;101165.94;;;7.76;100.00
57050;BME280;42935;50.966;16.992;2022-09-13T04:36:59;101167.15;;;7.82;100.00
57050;BME280;42935;50.966;16.992;2022-09-13T04:40:11;101158.59;;;7.78;100.00
57050;BME280;42935;50.966;16.992;2022-09-13T04:43:26;101165.67;;;7.83;100.00
57050;BME280;42935;50.966;16.992;2022-09-13T04:46:41;101156.20;;;7.80;100.00
57050;BME280;42935;50.966;16.992;2022-09-13T04:49:54;101152.86;;;7.83;100.00
57050;BME280;42935;50.966;16.992;2022-09-13T04:53:03;101161.27;;;7.97;100.00
57050;BME280;42935;50.966;16.992;2022-09-13T04:56:15;101165.87;;;8.09;100.00
57050;BME280;42935;50.966;16.992;2022-09-13T04:59:30;101153.91;;;8.11;100.00
57050;BME280;42935;50.966;16.992;2022-09-13T05:02:44;101164.63;;;8.29;100.00
57050;BME280;42935;50.966;16.992;2022-09-13T05:06:02;101156.95;;;8.30;100.00
57050;BME280;42935;50.966;16.992;2022-09-13T05:09:14;101167.26;;;8.42;100.00
57050;BME280;42935;50.966;16.992;2022-09-13T05:12:26;101165.48;;;8.51;100.00
57050;BME280;42935;50.966;16.992;2022-09-13T05:15:41;101160.43;;;8.55;100.00
57050;BME280;42935;50.966;16.992;2022-09-13T05:19:05;101164.76;;;8.71;100.00
57050;BME280;42935;50.966;16.992;2022-09-13T05:22:12;101156.65;;;8.81;100.00
57050;BME280;42935;50.966;16.992;2022-09-13T05:25:24;101155.38;;;8.94;100.00
57050;BME280;42935;50.966;16.992;2022-09-13T05:28:36;101156.11;;;9.13;100.00
57050;BME280;42935;50.966;16.992;2022-09-13T05:31:48;101150.04;;;9.29;100.00
57050;BME280;42935;50.966;16.992;2022-09-13T05:35:04;101150.30;;;9.38;100.00
57050;BME280;42935;50.966;16.992;2022-09-13T05:38:15;101144.80;;;9.53;100.00
57050;BME280;42935;50.966;16.992;2022-09-13T05:41:26;101148.68;;;9.77;100.00
57050;BME280;42935;50.966;16.992;2022-09-13T05:44:33;101138.12;;;9.82;100.00
57050;BME280;42935;50.966;16.992;2022-09-13T05:47:40;101141.09;;;10.02;100.00
57050;BME280;42935;50.966;16.992;2022-09-13T05:50:51;101132.95;;;10.09;100.00
57050;BME280;42935;50.966;16.992;2022-09-13T05:54:03;101135.42;;;10.23;100.00
57050;BME280;42935;50.966;16.992;2022-09-13T05:57:14;101121.55;;;10.29;100.00
57050;BME280;42935;50.966;16.992;2022-09-13T06:00:25;101128.59;;;10.43;100.00
57050;BME280;42935;50.966;16.992;2022-09-13T06:03:40;101118.17;;;10.57;100.00
57050;BME280;42935;50.966;16.992;2022-09-13T06:06:55;101115.37;;;10.70;100.00
57050;BME280;42935;50.966;16.992;2022-09-13T06:10:08;101113.48;;;10.80;100.00
57050;BME280;42935;50.966;16.992;2022-09-13T06:13:20;101093.56;;;10.78;100.00
57050;BME280;42935;50.966;16.992;2022-09-13T06:16:31;101086.17;;;10.84;100.00
57050;BME280;42935;50.966;16.992;2022-09-13T06:19:43;101083.84;;;10.95;100.00
57050;BME280;42935;50.966;16.992;2022-09-13T06:22:54;101087.87;;;11.09;100.00
57050;BME280;42935;50.966;16.992;2022-09-13T06:26:11;101083.72;;;11.21;100.00
57050;BME280;42935;50.966;16.992;2022-09-13T06:29:27;101084.84;;;11.33;100.00
57050;BME280;42935;50.966;16.992;2022-09-13T06:32:39;101084.45;;;11.47;100.00
57050;BME280;42935;50.966;16.992;2022-09-13T06:35:49;101078.57;;;11.64;100.00
57050;BME280;42935;50.966;16.992;2022-09-13T06:39:00;101072.54;;;11.75;100.00
57050;BME280;42935;50.966;16.992;2022-09-13T06:42:18;101064.18;;;11.85;100.00
57050;BME280;42935;50.966;16.992;2022-09-13T06:45:29;101063.33;;;12.01;100.00
57050;BME280;42935;50.966;16.992;2022-09-13T06:48:47;101064.23;;;12.17;100.00
57050;BME280;42935;50.966;16.992;2022-09-13T06:51:58;101057.86;;;12.32;100.00
57050;BME280;42935;50.966;16.992;2022-09-13T06:55:09;101067.71;;;12.49;100.00
57050;BME280;42935;50.966;16.992;2022-09-13T06:58:20;101067.50;;;12.74;100.00
57050;BME280;42935;50.966;16.992;2022-09-13T07:01:34;101052.84;;;12.87;100.00
57050;BME280;42935;50.966;16.992;2022-09-13T07:04:47;101061.09;;;13.10;100.00
57050;BME280;42935;50.966;16.992;2022-09-13T07:08:01;101058.70;;;13.28;100.00
57050;BME280;42935;50.966;16.992;2022-09-13T07:11:14;101061.75;;;13.55;100.00
57050;BME280;42935;50.966;16.992;2022-09-13T07:14:28;101057.06;;;13.72;100.00
57050;BME280;42935;50.966;16.992;2022-09-13T07:17:41;101049.84;;;13.80;100.00
57050;BME280;42935;50.966;16.992;2022-09-13T07:21:01;101047.07;;;14.05;100.00
57050;BME280;42935;50.966;16.992;2022-09-13T07:24:14;101050.87;;;14.30;100.00
57050;BME280;42935;50.966;16.992;2022-09-13T07:27:25;101047.43;;;14.53;100.00
57050;BME280;42935;50.966;16.992;2022-09-13T07:30:36;101042.11;;;14.69;100.00
57050;BME280;42935;50.966;16.992;2022-09-13T07:33:53;101036.29;;;14.91;100.00
57050;BME280;42935;50.966;16.992;2022-09-13T07:37:08;101031.78;;;15.05;100.00
57050;BME280;42935;50.966;16.992;2022-09-13T07:40:17;101039.56;;;15.48;100.00
57050;BME280;42935;50.966;16.992;2022-09-13T07:43:28;101039.38;;;15.84;100.00
57050;BME280;42935;50.966;16.992;2022-09-13T07:46:41;101035.03;;;16.12;100.00
57050;BME280;42935;50.966;16.992;2022-09-13T07:49:55;101044.04;;;16.01;100.00
57050;BME280;42935;50.966;16.992;2022-09-13T07:53:07;101046.88;;;15.84;100.00
57050;BME280;42935;50.966;16.992;2022-09-13T07:56:22;101050.20;;;15.99;100.00
57050;BME280;42935;50.966;16.992;2022-09-13T07:59:37;101046.27;;;16.15;100.00
57050;BME280;42935;50.966;16.992;2022-09-13T08:02:49;101041.52;;;16.24;100.00
57050;BME280;42935;50.966;16.992;2022-09-13T08:06:02;101046.87;;;16.46;100.00
57050;BME280;42935;50.966;16.992;2022-09-13T08:09:15;101038.19;;;16.77;100.00
57050;BME280;42935;50.966;16.992;2022-09-13T08:12:27;101031.30;;;16.78;100.00
57050;BME280;42935;50.966;16.992;2022-09-13T08:15:37;101035.40;;;16.86;100.00
57050;BME280;42935;50.966;16.992;2022-09-13T08:18:54;101031.94;;;17.17;100.00
57050;BME280;42935;50.966;16.992;2022-09-13T08:22:05;101026.80;;;17.21;100.00
57050;BME280;42935;50.966;16.992;2022-09-13T08:25:16;101025.51;;;17.36;100.00
57050;BME280;42935;50.966;16.992;2022-09-13T08:28:28;101013.07;;;17.45;100.00
57050;BME280;42935;50.966;16.992;2022-09-13T08:31:42;101021.93;;;17.75;100.00
57050;BME280;42935;50.966;16.992;2022-09-13T08:34:55;101022.45;;;17.74;100.00
57050;BME280;42935;50.966;16.992;2022-09-13T08:38:09;101017.15;;;17.91;100.00
57050;BME280;42935;50.966;16.992;2022-09-13T08:44:52;101007.13;;;18.04;100.00
57050;BME280;42935;50.966;16.992;2022-09-13T08:48:13;100996.25;;;18.19;100.00
57050;BME280;42935;50.966;16.992;2022-09-13T08:54:49;101004.56;;;18.58;100.00
57050;BME280;42935;50.966;16.992;2022-09-13T08:58:16;101006.19;;;18.77;96.57
57050;BME280;42935;50.966;16.992;2022-09-13T09:01:39;101006.45;;;19.01;89.46
57050;BME280;42935;50.966;16.992;2022-09-13T09:04:55;101005.68;;;19.30;91.73
57050;BME280;42935;50.966;16.992;2022-09-13T09:08:14;100997.59;;;19.45;92.52
57050;BME280;42935;50.966;16.992;2022-09-13T09:15:00;100985.52;;;19.42;88.90
57050;BME280;42935;50.966;16.992;2022-09-13T09:18:20;100975.36;;;19.87;92.50
57050;BME280;42935;50.966;16.992;2022-09-13T09:21:32;100969.49;;;20.07;88.09
57050;BME280;42935;50.966;16.992;2022-09-13T09:24:50;100961.98;;;20.09;81.45
57050;BME280;42935;50.966;16.992;2022-09-13T09:31:39;100972.85;;;20.30;77.97
57050;BME280;42935;50.966;16.992;2022-09-13T09:35:02;100963.80;;;20.93;80.17
57050;BME280;42935;50.966;16.992;2022-09-13T09:41:34;100958.67;;;20.39;81.38
57050;BME280;42935;50.966;16.992;2022-09-13T09:48:47;100951.70;;;20.66;77.55
57050;BME280;42935;50.966;16.992;2022-09-13T09:52:11;100945.58;;;20.81;78.47
57050;BME280;42935;50.966;16.992;2022-09-13T09:58:44;100936.91;;;20.32;78.86
57050;BME280;42935;50.966;16.992;2022-09-13T10:01:55;100933.39;;;20.13;83.18
57050;BME280;42935;50.966;16.992;2022-09-13T10:05:06;100934.24;;;20.00;81.24
57050;BME280;42935;50.966;16.992;2022-09-13T10:08:25;100931.77;;;19.92;77.18
57050;BME280;42935;50.966;16.992;2022-09-13T10:15:12;100918.72;;;19.90;81.77
57050;BME280;42935;50.966;16.992;2022-09-13T10:18:21;100908.57;;;19.56;84.93
57050;BME280;42935;50.966;16.992;2022-09-13T10:21:34;100905.61;;;19.41;90.37
57050;BME280;42935;50.966;16.992;2022-09-13T10:24:45;100900.91;;;19.25;86.47
57050;BME280;42935;50.966;16.992;2022-09-13T10:27:58;100895.23;;;19.24;92.96
57050;BME280;42935;50.966;16.992;2022-09-13T10:31:13;100896.14;;;19.29;91.80
57050;BME280;42935;50.966;16.992;2022-09-13T10:34:34;100898.88;;;19.35;91.84
57050;BME280;42935;50.966;16.992;2022-09-13T10:37:51;100894.51;;;19.36;97.52
57050;BME280;42935;50.966;16.992;2022-09-13T10:41:18;100890.02;;;19.65;93.21
57050;BME280;42935;50.966;16.992;2022-09-13T10:47:50;100881.50;;;20.08;93.98
57050;BME280;42935;50.966;16.992;2022-09-13T10:51:07;100886.44;;;20.13;88.53
57050;BME280;42935;50.966;16.992;2022-09-13T10:54:24;100883.15;;;19.90;86.52
57050;BME280;42935;50.966;16.992;2022-09-13T10:57:37;100881.63;;;19.80;86.10
57050;BME280;42935;50.966;16.992;2022-09-13T11:11:15;100880.80;;;19.86;82.15
57050;BME280;42935;50.966;16.992;2022-09-13T11:21:33;100874.92;;;19.95;81.48
57050;BME280;42935;50.966;16.992;2022-09-13T11:28:22;100865.70;;;20.19;81.80
57050;BME280;42935;50.966;16.992;2022-09-13T11:31:42;100855.40;;;20.14;82.51
57050;BME280;42935;50.966;16.992;2022-09-13T11:42:00;100843.30;;;20.74;84.99
57050;BME280;42935;50.966;16.992;2022-09-13T11:45:19;100843.01;;;20.62;83.00
57050;BME280;42935;50.966;16.992;2022-09-13T11:48:44;100848.97;;;20.58;85.28
57050;BME280;42935;50.966;16.992;2022-09-13T11:55:37;100829.56;;;20.80;79.74
57050;BME280;42935;50.966;16.992;2022-09-13T11:58:50;100834.23;;;20.60;80.59
57050;BME280;42935;50.966;16.992;2022-09-13T12:05:22;100843.06;;;19.90;85.28
57050;BME280;42935;50.966;16.992;2022-09-13T12:08:53;100841.51;;;19.90;88.49
57050;BME280;42935;50.966;16.992;2022-09-13T12:12:06;100837.85;;;19.98;89.36
57050;BME280;42935;50.966;16.992;2022-09-13T12:15:22;100827.30;;;19.95;94.67
57050;BME280;42935;50.966;16.992;2022-09-13T12:21:59;100812.39;;;20.03;91.47
57050;BME280;42935;50.966;16.992;2022-09-13T12:25:20;100813.45;;;19.92;89.39
57050;BME280;42935;50.966;16.992;2022-09-13T12:28:39;100810.37;;;20.10;99.09
57050;BME280;42935;50.966;16.992;2022-09-13T12:31:59;100815.30;;;19.81;90.40
57050;BME280;42935;50.966;16.992;2022-09-13T12:59:03;100783.16;;;19.55;97.88
57050;BME280;42935;50.966;16.992;2022-09-13T13:02:25;100790.58;;;19.63;98.58
57050;BME280;42935;50.966;16.992;2022-09-13T13:09:44;100774.78;;;20.18;91.36
57050;BME280;42935;50.966;16.992;2022-09-13T13:16:24;100765.91;;;20.58;86.26
57050;BME280;42935;50.966;16.992;2022-09-13T13:19:38;100767.42;;;21.02;94.49
57050;BME280;42935;50.966;16.992;2022-09-13T13:22:51;100756.02;;;21.09;87.28
57050;BME280;42935;50.966;16.992;2022-09-13T13:26:11;100766.52;;;21.15;88.16
57050;BME280;42935;50.966;16.992;2022-09-13T13:29:31;100771.48;;;20.72;88.95
57050;BME280;42935;50.966;16.992;2022-09-13T13:39:34;100760.47;;;20.35;92.29
57050;BME280;42935;50.966;16.992;2022-09-13T13:42:46;100748.05;;;20.01;91.90
57050;BME280;42935;50.966;16.992;2022-09-13T13:52:52;100737.13;;;20.32;91.03
57050;BME280;42935;50.966;16.992;2022-09-13T13:59:34;100726.49;;;20.34;90.40
57050;BME280;42935;50.966;16.992;2022-09-13T14:02:58;100724.87;;;20.32;91.45
57050;BME280;42935;50.966;16.992;2022-09-13T14:19:42;100702.54;;;20.59;89.61
57050;BME280;42935;50.966;16.992;2022-09-13T14:26:20;100699.27;;;20.59;92.18
57050;BME280;42935;50.966;16.992;2022-09-13T14:29:32;100698.38;;;20.65;90.43
57050;BME280;42935;50.966;16.992;2022-09-13T14:32:48;100698.27;;;20.66;86.49
57050;BME280;42935;50.966;16.992;2022-09-13T14:36:04;100692.95;;;21.76;80.98
57050;BME280;42935;50.966;16.992;2022-09-13T14:39:15;100693.54;;;22.26;71.62
57050;BME280;42935;50.966;16.992;2022-09-13T14:45:51;100690.33;;;22.91;67.28
57050;BME280;42935;50.966;16.992;2022-09-13T14:49:22;100686.55;;;23.19;67.21
57050;BME280;42935;50.966;16.992;2022-09-13T14:52:33;100685.02;;;23.50;66.42
57050;BME280;42935;50.966;16.992;2022-09-13T14:55:55;100679.38;;;24.37;69.32
57050;BME280;42935;50.966;16.992;2022-09-13T15:02:34;100673.12;;;23.78;68.72
57050;BME280;42935;50.966;16.992;2022-09-13T15:06:00;100668.66;;;23.41;66.36
57050;BME280;42935;50.966;16.992;2022-09-13T15:09:21;100671.34;;;23.26;68.25
57050;BME280;42935;50.966;16.992;2022-09-13T15:12:32;100673.32;;;22.40;70.32
57050;BME280;42935;50.966;16.992;2022-09-13T15:15:44;100673.88;;;21.55;76.67
57050;BME280;42935;50.966;16.992;2022-09-13T15:22:28;100675.05;;;20.94;83.18
57050;BME280;42935;50.966;16.992;2022-09-13T15:25:37;100671.52;;;20.81;84.71
57050;BME280;42935;50.966;16.992;2022-09-13T15:28:50;100671.25;;;20.70;87.47
57050;BME280;42935;50.966;16.992;2022-09-13T15:32:18;100672.30;;;20.56;88.21
57050;BME280;42935;50.966;16.992;2022-09-13T15:35:32;100670.25;;;20.47;89.23
57050;BME280;42935;50.966;16.992;2022-09-13T15:42:02;100655.70;;;21.31;82.52
57050;BME280;42935;50.966;16.992;2022-09-13T15:45:18;100657.71;;;21.47;84.41
57050;BME280;42935;50.966;16.992;2022-09-13T15:48:31;100659.34;;;21.21;82.07
57050;BME280;42935;50.966;16.992;2022-09-13T15:51:42;100658.23;;;20.69;86.57
57050;BME280;42935;50.966;16.992;2022-09-13T15:54:57;100658.39;;;20.43;88.74
57050;BME280;42935;50.966;16.992;2022-09-13T15:58:09;100655.46;;;20.18;90.27
57050;BME280;42935;50.966;16.992;2022-09-13T16:01:19;100659.06;;;19.98;94.38
57050;BME280;42935;50.966;16.992;2022-09-13T16:04:31;100654.70;;;19.94;95.21
57050;BME280;42935;50.966;16.992;2022-09-13T16:07:44;100653.26;;;19.95;94.52
57050;BME280;42935;50.966;16.992;2022-09-13T16:10:55;100652.20;;;19.86;95.43
57050;BME280;42935;50.966;16.992;2022-09-13T16:14:03;100649.06;;;20.15;94.73
57050;BME280;42935;50.966;16.992;2022-09-13T16:17:23;100635.91;;;20.34;88.19
57050;BME280;42935;50.966;16.992;2022-09-13T16:20:35;100630.63;;;20.17;90.49
57050;BME280;42935;50.966;16.992;2022-09-13T16:23:45;100630.80;;;20.00;91.04
57050;BME280;42935;50.966;16.992;2022-09-13T16:27:30;100631.39;;;19.88;93.25
57050;BME280;42935;50.966;16.992;2022-09-13T16:30:41;100635.12;;;19.67;95.50
57050;BME280;42935;50.966;16.992;2022-09-13T16:33:49;100635.02;;;19.63;99.48
57050;BME280;42935;50.966;16.992;2022-09-13T16:37:01;100640.80;;;19.45;100.00
57050;BME280;42935;50.966;16.992;2022-09-13T16:40:13;100643.45;;;19.24;100.00
57050;BME280;42935;50.966;16.992;2022-09-13T16:43:31;100635.55;;;19.07;100.00
57050;BME280;42935;50.966;16.992;2022-09-13T16:46:40;100643.20;;;18.98;100.00
57050;BME280;42935;50.966;16.992;2022-09-13T16:49:56;100651.08;;;18.84;100.00
57050;BME280;42935;50.966;16.992;2022-09-13T16:53:11;100656.04;;;18.55;100.00
57050;BME280;42935;50.966;16.992;2022-09-13T16:56:25;100651.40;;;18.21;100.00
57050;BME280;42935;50.966;16.992;2022-09-13T16:59:36;100646.52;;;18.10;100.00
57050;BME280;42935;50.966;16.992;2022-09-13T17:02:45;100650.66;;;18.20;100.00
57050;BME280;42935;50.966;16.992;2022-09-13T17:06:01;100655.91;;;18.13;100.00
57050;BME280;42935;50.966;16.992;2022-09-13T17:09:14;100649.25;;;18.09;100.00
57050;BME280;42935;50.966;16.992;2022-09-13T17:12:53;100656.09;;;17.99;100.00
57050;BME280;42935;50.966;16.992;2022-09-13T17:16:15;100657.66;;;17.97;100.00
57050;BME280;42935;50.966;16.992;2022-09-13T17:19:24;100658.41;;;17.89;100.00
57050;BME280;42935;50.966;16.992;2022-09-13T17:22:38;100656.51;;;17.82;100.00
57050;BME280;42935;50.966;16.992;2022-09-13T17:25:49;100653.30;;;17.69;100.00
57050;BME280;42935;50.966;16.992;2022-09-13T17:29:00;100653.88;;;17.65;100.00
57050;BME280;42935;50.966;16.992;2022-09-13T17:32:11;100646.24;;;17.62;100.00
57050;BME280;42935;50.966;16.992;2022-09-13T17:35:22;100641.97;;;17.68;100.00
57050;BME280;42935;50.966;16.992;2022-09-13T17:38:31;100638.13;;;17.69;100.00
57050;BME280;42935;50.966;16.992;2022-09-13T17:41:42;100647.88;;;17.65;100.00
57050;BME280;42935;50.966;16.992;2022-09-13T17:44:52;100649.82;;;17.54;100.00
57050;BME280;42935;50.966;16.992;2022-09-13T17:48:05;100642.25;;;17.38;100.00
57050;BME280;42935;50.966;16.992;2022-09-13T17:51:18;100646.07;;;17.52;100.00
57050;BME280;42935;50.966;16.992;2022-09-13T17:54:34;100642.84;;;17.52;100.00
57050;BME280;42935;50.966;16.992;2022-09-13T17:57:47;100638.19;;;17.43;100.00
57050;BME280;42935;50.966;16.992;2022-09-13T18:01:06;100644.98;;;17.49;100.00
57050;BME280;42935;50.966;16.992;2022-09-13T18:04:21;100634.05;;;17.46;100.00
57050;BME280;42935;50.966;16.992;2022-09-13T18:07:34;100638.84;;;17.37;100.00
57050;BME280;42935;50.966;16.992;2022-09-13T18:10:44;100649.48;;;17.41;100.00
57050;BME280;42935;50.966;16.992;2022-09-13T18:13:56;100646.06;;;17.47;100.00
57050;BME280;42935;50.966;16.992;2022-09-13T18:17:08;100646.48;;;17.40;100.00
57050;BME280;42935;50.966;16.992;2022-09-13T18:20:25;100642.62;;;17.43;100.00
57050;BME280;42935;50.966;16.992;2022-09-13T18:23:36;100648.88;;;17.40;100.00
57050;BME280;42935;50.966;16.992;2022-09-13T18:26:47;100642.55;;;17.29;100.00
57050;BME280;42935;50.966;16.992;2022-09-13T18:30:00;100653.43;;;17.11;100.00
57050;BME280;42935;50.966;16.992;2022-09-13T18:33:14;100644.18;;;16.86;100.00
57050;BME280;42935;50.966;16.992;2022-09-13T18:36:32;100646.56;;;17.06;100.00
57050;BME280;42935;50.966;16.992;2022-09-13T18:39:46;100638.15;;;16.94;100.00
57050;BME280;42935;50.966;16.992;2022-09-13T18:43:01;100643.77;;;16.80;100.00
57050;BME280;42935;50.966;16.992;2022-09-13T18:46:13;100648.01;;;16.55;100.00
57050;BME280;42935;50.966;16.992;2022-09-13T18:49:27;100651.94;;;16.52;100.00
57050;BME280;42935;50.966;16.992;2022-09-13T18:52:39;100652.00;;;16.30;100.00
57050;BME280;42935;50.966;16.992;2022-09-13T18:55:52;100648.22;;;16.37;100.00
57050;BME280;42935;50.966;16.992;2022-09-13T18:59:04;100648.95;;;16.38;100.00
57050;BME280;42935;50.966;16.992;2022-09-13T19:02:15;100649.41;;;16.20;100.00
57050;BME280;42935;50.966;16.992;2022-09-13T19:05:26;100648.67;;;15.95;100.00
57050;BME280;42935;50.966;16.992;2022-09-13T19:08:34;100651.06;;;15.86;100.00
57050;BME280;42935;50.966;16.992;2022-09-13T19:11:50;100648.47;;;15.81;100.00
57050;BME280;42935;50.966;16.992;2022-09-13T19:15:03;100647.06;;;15.87;100.00
57050;BME280;42935;50.966;16.992;2022-09-13T19:18:15;100650.55;;;15.80;100.00
57050;BME280;42935;50.966;16.992;2022-09-13T19:21:29;100649.88;;;15.61;100.00
57050;BME280;42935;50.966;16.992;2022-09-13T19:24:42;100645.29;;;15.51;100.00
57050;BME280;42935;50.966;16.992;2022-09-13T19:27:51;100633.48;;;15.61;100.00
57050;BME280;42935;50.966;16.992;2022-09-13T19:31:09;100637.95;;;15.65;100.00
57050;BME280;42935;50.966;16.992;2022-09-13T19:34:22;100645.55;;;15.62;100.00
57050;BME280;42935;50.966;16.992;2022-09-13T19:37:32;100643.35;;;15.54;100.00
57050;BME280;42935;50.966;16.992;2022-09-13T19:40:41;100644.67;;;15.65;100.00
57050;BME280;42935;50.966;16.992;2022-09-13T19:43:55;100656.36;;;15.70;100.00
57050;BME280;42935;50.966;16.992;2022-09-13T19:47:07;100650.94;;;15.84;100.00
57050;BME280;42935;50.966;16.992;2022-09-13T19:50:21;100649.95;;;15.88;100.00
57050;BME280;42935;50.966;16.992;2022-09-13T19:53:34;100647.70;;;15.97;100.00
57050;BME280;42935;50.966;16.992;2022-09-13T19:56:46;100638.32;;;15.93;100.00
57050;BME280;42935;50.966;16.992;2022-09-13T19:59:59;100647.41;;;15.95;100.00
57050;BME280;42935;50.966;16.992;2022-09-13T20:03:12;100647.88;;;15.84;100.00
57050;BME280;42935;50.966;16.992;2022-09-13T20:06:26;100648.55;;;15.82;100.00
57050;BME280;42935;50.966;16.992;2022-09-13T20:09:39;100649.74;;;15.90;100.00